createdAt,value
2016-05-17T00:00:06.125Z,8.93
2016-05-17T00:00:16.140Z,8.96
2016-05-17T00:00:26.140Z,8.9
2016-05-17T00:00:36.140Z,8.92
2016-05-17T00:00:46.156Z,8.97
2016-05-17T00:00:56.156Z,8.97
2016-05-17T00:01:06.159Z,8.97
2016-05-17T00:01:16.190Z,8.9
2016-05-17T00:01:26.175Z,8.97
2016-05-17T00:01:36.175Z,8.92
2016-05-17T00:01:46.175Z,8.96
2016-05-17T00:01:56.175Z,9
2016-05-17T00:02:06.193Z,8.9
2016-05-17T00:02:16.193Z,8.97
2016-05-17T00:02:26.193Z,9.02
2016-05-17T00:02:36.193Z,9.02
2016-05-17T00:02:46.193Z,9
2016-05-17T00:02:56.209Z,8.89
2016-05-17T00:03:06.211Z,8.97
2016-05-17T00:03:16.227Z,9.02
2016-05-17T00:03:26.211Z,9
2016-05-17T00:03:36.227Z,9
2016-05-17T00:03:46.227Z,9.02
2016-05-17T00:03:56.242Z,8.99
2016-05-17T00:04:06.245Z,8.97
2016-05-17T00:04:16.245Z,8.99
2016-05-17T00:04:26.261Z,8.99
2016-05-17T00:04:36.245Z,8.99
2016-05-17T00:04:46.261Z,9.03
2016-05-17T00:04:56.261Z,8.96
2016-05-17T00:05:06.263Z,9.05
2016-05-17T00:05:16.263Z,8.97
2016-05-17T00:05:26.278Z,8.93
2016-05-17T00:05:36.278Z,9.02
2016-05-17T00:05:46.278Z,8.99
2016-05-17T00:05:56.294Z,8.93
2016-05-17T00:06:06.297Z,8.9
2016-05-17T00:06:16.297Z,8.97
2016-05-17T00:06:26.297Z,8.97
2016-05-17T00:06:36.297Z,8.92
2016-05-17T00:06:46.313Z,9
2016-05-17T00:06:56.313Z,8.95
2016-05-17T00:07:06.316Z,8.92
2016-05-17T00:07:16.316Z,8.95
2016-05-17T00:07:26.331Z,9
2016-05-17T00:07:36.331Z,8.93
2016-05-17T00:07:46.331Z,9.03
2016-05-17T00:07:56.347Z,8.95
2016-05-17T00:08:06.349Z,8.93
2016-05-17T00:08:16.349Z,8.95
2016-05-17T00:08:26.349Z,8.95
2016-05-17T00:08:36.349Z,8.95
2016-05-17T00:08:46.365Z,9
2016-05-17T00:08:56.365Z,8.96
2016-05-17T00:09:06.368Z,9
2016-05-17T00:09:16.368Z,8.95
2016-05-17T00:09:26.383Z,8.92
2016-05-17T00:09:36.383Z,9.02
2016-05-17T00:09:46.383Z,8.95
2016-05-17T00:09:56.383Z,8.97
2016-05-17T00:10:06.402Z,9.02
2016-05-17T00:10:16.402Z,8.92
2016-05-17T00:10:26.402Z,8.97
2016-05-17T00:10:36.417Z,8.97
2016-05-17T00:10:46.417Z,9.02
2016-05-17T00:10:56.417Z,8.97
2016-05-17T00:11:06.420Z,8.95
2016-05-17T00:11:16.420Z,8.96
2016-05-17T00:11:26.436Z,8.99
2016-05-17T00:11:36.452Z,8.93
2016-05-17T00:11:46.436Z,8.97
2016-05-17T00:11:56.452Z,9.02
2016-05-17T00:12:06.455Z,9.09
2016-05-17T00:12:16.455Z,8.97
2016-05-17T00:12:26.470Z,8.99
2016-05-17T00:12:36.470Z,8.95
2016-05-17T00:12:46.470Z,8.95
2016-05-17T00:12:56.470Z,9.03
2016-05-17T00:13:06.472Z,8.95
2016-05-17T00:13:16.488Z,9.03
2016-05-17T00:13:26.488Z,9
2016-05-17T00:13:36.488Z,8.93
2016-05-17T00:13:46.488Z,8.96
2016-05-17T00:13:56.488Z,8.96
2016-05-17T00:14:06.507Z,9.03
2016-05-17T00:14:16.507Z,9.03
2016-05-17T00:14:26.507Z,8.95
2016-05-17T00:14:36.522Z,8.97
2016-05-17T00:14:46.522Z,9
2016-05-17T00:14:56.522Z,8.96
2016-05-17T00:15:06.524Z,9.02
2016-05-17T00:15:16.524Z,8.97
2016-05-17T00:15:26.540Z,8.97
2016-05-17T00:15:36.540Z,8.99
2016-05-17T00:15:46.540Z,8.99
2016-05-17T00:15:56.555Z,8.93
2016-05-17T00:16:06.558Z,9.02
2016-05-17T00:16:16.558Z,9.03
2016-05-17T00:16:26.558Z,8.97
2016-05-17T00:16:36.558Z,8.99
2016-05-17T00:16:46.574Z,8.9
2016-05-17T00:16:56.574Z,8.96
2016-05-17T00:17:06.577Z,8.89
2016-05-17T00:17:16.593Z,8.92
2016-05-17T00:17:26.593Z,8.99
2016-05-17T00:17:36.593Z,8.95
2016-05-17T00:17:46.593Z,9.02
2016-05-17T00:17:56.608Z,8.97
2016-05-17T00:18:06.610Z,9
2016-05-17T00:18:16.610Z,8.97
2016-05-17T00:18:26.610Z,8.93
2016-05-17T00:18:36.626Z,8.97
2016-05-17T00:18:46.626Z,8.95
2016-05-17T00:18:56.642Z,9.02
2016-05-17T00:19:06.646Z,9.02
2016-05-17T00:19:16.646Z,8.89
2016-05-17T00:19:26.646Z,8.92
2016-05-17T00:19:36.646Z,9.02
2016-05-17T00:19:46.646Z,8.99
2016-05-17T00:19:56.646Z,8.99
2016-05-17T00:20:06.663Z,8.97
2016-05-17T00:20:16.663Z,9.08
2016-05-17T00:20:26.663Z,8.93
2016-05-17T00:20:36.679Z,8.93
2016-05-17T00:20:46.679Z,9.02
2016-05-17T00:20:56.679Z,8.93
2016-05-17T00:21:06.682Z,8.96
2016-05-17T00:21:16.697Z,8.95
2016-05-17T00:21:27.229Z,9
2016-05-17T00:21:37.276Z,8.95
2016-05-17T00:21:46.697Z,8.99
2016-05-17T00:21:56.713Z,8.95
2016-05-17T00:22:06.716Z,8.89
2016-05-17T00:22:16.716Z,9.02
2016-05-17T00:22:26.732Z,8.9
2016-05-17T00:22:36.732Z,8.99
2016-05-17T00:22:46.732Z,8.9
2016-05-17T00:22:56.732Z,9.08
2016-05-17T00:23:06.734Z,8.97
2016-05-17T00:23:16.749Z,8.97
2016-05-17T00:23:26.749Z,8.99
2016-05-17T00:23:36.749Z,8.92
2016-05-17T00:23:46.749Z,8.99
2016-05-17T00:23:56.765Z,9
2016-05-17T00:24:06.768Z,9.08
2016-05-17T00:24:16.768Z,8.89
2016-05-17T00:24:26.768Z,8.86
2016-05-17T00:24:36.784Z,8.93
2016-05-17T00:24:46.799Z,8.87
2016-05-17T00:24:56.784Z,8.86
2016-05-17T00:25:06.801Z,8.95
2016-05-17T00:25:16.801Z,8.86
2016-05-17T00:25:26.801Z,8.95
2016-05-17T00:25:36.801Z,8.93
2016-05-17T00:25:46.801Z,8.87
2016-05-17T00:25:56.817Z,8.79
2016-05-17T00:26:06.820Z,8.95
2016-05-17T00:26:16.820Z,8.93
2016-05-17T00:26:26.835Z,8.97
2016-05-17T00:26:36.835Z,8.92
2016-05-17T00:26:46.835Z,8.93
2016-05-17T00:26:56.835Z,8.93
2016-05-17T00:27:06.854Z,8.93
2016-05-17T00:27:16.854Z,8.92
2016-05-17T00:27:26.854Z,8.86
2016-05-17T00:27:36.854Z,8.93
2016-05-17T00:27:46.870Z,8.86
2016-05-17T00:27:56.870Z,8.87
2016-05-17T00:28:06.873Z,8.92
2016-05-17T00:28:16.873Z,8.92
2016-05-17T00:28:26.888Z,8.96
2016-05-17T00:28:36.888Z,8.82
2016-05-17T00:28:46.904Z,8.96
2016-05-17T00:28:56.904Z,8.92
2016-05-17T00:29:06.906Z,8.95
2016-05-17T00:29:16.906Z,8.89
2016-05-17T00:29:26.922Z,8.93
2016-05-17T00:29:36.922Z,8.93
2016-05-17T00:29:46.922Z,8.84
2016-05-17T00:29:56.922Z,8.87
2016-05-17T00:30:06.925Z,8.92
2016-05-17T00:30:16.925Z,8.93
2016-05-17T00:30:26.925Z,8.92
2016-05-17T00:30:36.940Z,8.89
2016-05-17T00:30:46.940Z,8.92
2016-05-17T00:30:56.940Z,8.92
2016-05-17T00:31:06.958Z,8.92
2016-05-17T00:31:16.958Z,8.86
2016-05-17T00:31:26.973Z,8.84
2016-05-17T00:31:36.958Z,8.92
2016-05-17T00:31:46.973Z,8.86
2016-05-17T00:31:56.973Z,8.81
2016-05-17T00:32:06.993Z,8.89
2016-05-17T00:32:16.977Z,8.87
2016-05-17T00:32:26.993Z,8.9
2016-05-17T00:32:36.993Z,8.92
2016-05-17T00:32:46.993Z,8.9
2016-05-17T00:32:56.993Z,8.82
2016-05-17T00:33:06.995Z,8.9
2016-05-17T00:33:17.011Z,8.89
2016-05-17T00:33:27.011Z,8.9
2016-05-17T00:33:37.011Z,8.89
2016-05-17T00:33:47.026Z,8.84
2016-05-17T00:33:57.026Z,8.89
2016-05-17T00:34:07.028Z,8.86
2016-05-17T00:34:17.028Z,8.81
2016-05-17T00:34:27.044Z,8.82
2016-05-17T00:34:37.044Z,8.9
2016-05-17T00:34:47.044Z,8.89
2016-05-17T00:34:57.044Z,8.79
2016-05-17T00:35:07.063Z,8.87
2016-05-17T00:35:17.063Z,8.89
2016-05-17T00:35:27.063Z,8.87
2016-05-17T00:35:37.063Z,8.87
2016-05-17T00:35:47.078Z,8.87
2016-05-17T00:35:57.078Z,8.86
2016-05-17T00:36:07.081Z,8.82
2016-05-17T00:36:17.081Z,8.87
2016-05-17T00:36:27.409Z,8.82
2016-05-17T00:36:37.097Z,8.84
2016-05-17T00:36:47.284Z,8.84
2016-05-17T00:36:57.097Z,8.86
2016-05-17T00:37:07.115Z,8.81
2016-05-17T00:37:17.334Z,8.84
2016-05-17T00:37:27.115Z,8.84
2016-05-17T00:37:37.115Z,8.81
2016-05-17T00:37:47.131Z,8.79
2016-05-17T00:37:57.131Z,8.84
2016-05-17T00:38:07.134Z,8.89
2016-05-17T00:38:17.134Z,8.84
2016-05-17T00:38:27.150Z,8.84
2016-05-17T00:38:37.150Z,8.84
2016-05-17T00:38:47.150Z,8.81
2016-05-17T00:38:57.150Z,8.82
2016-05-17T00:39:07.167Z,8.89
2016-05-17T00:39:17.167Z,8.89
2016-05-17T00:39:27.167Z,8.87
2016-05-17T00:39:37.167Z,8.86
2016-05-17T00:39:47.183Z,8.84
2016-05-17T00:39:57.183Z,8.82
2016-05-17T00:40:07.186Z,8.81
2016-05-17T00:40:17.186Z,8.84
2016-05-17T00:40:27.202Z,8.81
2016-05-17T00:40:37.202Z,8.77
2016-05-17T00:40:47.217Z,8.79
2016-05-17T00:40:57.217Z,8.72
2016-05-17T00:41:07.219Z,8.81
2016-05-17T00:41:17.219Z,8.77
2016-05-17T00:41:27.219Z,8.79
2016-05-17T00:41:37.219Z,8.77
2016-05-17T00:41:47.235Z,8.78
2016-05-17T00:41:57.235Z,8.81
2016-05-17T00:42:07.238Z,8.75
2016-05-17T00:42:17.238Z,8.78
2016-05-17T00:42:27.253Z,8.75
2016-05-17T00:42:37.253Z,8.79
2016-05-17T00:42:47.253Z,8.79
2016-05-17T00:42:57.253Z,8.77
2016-05-17T00:43:07.272Z,8.78
2016-05-17T00:43:17.272Z,8.75
2016-05-17T00:43:27.288Z,8.79
2016-05-17T00:43:37.272Z,8.81
2016-05-17T00:43:47.288Z,8.82
2016-05-17T00:43:57.288Z,8.81
2016-05-17T00:44:07.291Z,8.77
2016-05-17T00:44:17.291Z,8.82
2016-05-17T00:44:27.306Z,8.81
2016-05-17T00:44:37.306Z,8.84
2016-05-17T00:44:47.306Z,8.79
2016-05-17T00:44:57.306Z,8.77
2016-05-17T00:45:07.325Z,8.86
2016-05-17T00:45:17.325Z,8.77
2016-05-17T00:45:27.325Z,8.84
2016-05-17T00:45:37.341Z,8.79
2016-05-17T00:45:47.341Z,8.77
2016-05-17T00:45:57.341Z,8.81
2016-05-17T00:46:07.343Z,8.77
2016-05-17T00:46:17.358Z,8.77
2016-05-17T00:46:27.358Z,8.78
2016-05-17T00:46:37.358Z,8.84
2016-05-17T00:46:47.358Z,8.82
2016-05-17T00:46:57.374Z,8.81
2016-05-17T00:47:07.377Z,8.84
2016-05-17T00:47:17.377Z,8.75
2016-05-17T00:47:27.377Z,8.78
2016-05-17T00:47:37.392Z,8.81
2016-05-17T00:47:47.392Z,8.81
2016-05-17T00:47:57.392Z,8.77
2016-05-17T00:48:07.411Z,8.78
2016-05-17T00:48:17.411Z,8.78
2016-05-17T00:48:27.411Z,8.81
2016-05-17T00:48:37.411Z,8.79
2016-05-17T00:48:47.411Z,8.84
2016-05-17T00:48:57.427Z,8.87
2016-05-17T00:49:07.429Z,8.78
2016-05-17T00:49:17.429Z,8.79
2016-05-17T00:49:27.429Z,8.81
2016-05-17T00:49:37.429Z,8.84
2016-05-17T00:49:47.444Z,8.82
2016-05-17T00:49:57.444Z,8.79
2016-05-17T00:50:07.446Z,8.78
2016-05-17T00:50:17.462Z,8.81
2016-05-17T00:50:27.462Z,8.77
2016-05-17T00:50:37.462Z,8.82
2016-05-17T00:50:47.462Z,8.82
2016-05-17T00:50:57.478Z,8.87
2016-05-17T00:51:07.481Z,8.86
2016-05-17T00:51:17.496Z,8.82
2016-05-17T00:51:27.496Z,8.87
2016-05-17T00:51:37.481Z,8.82
2016-05-17T00:51:47.496Z,8.84
2016-05-17T00:51:57.496Z,8.82
2016-05-17T00:52:07.780Z,8.82
2016-05-17T00:52:17.515Z,8.84
2016-05-17T00:52:27.515Z,8.84
2016-05-17T00:52:37.515Z,8.81
2016-05-17T00:52:47.515Z,8.79
2016-05-17T00:52:57.530Z,8.82
2016-05-17T00:53:07.533Z,8.75
2016-05-17T00:53:17.533Z,8.84
2016-05-17T00:53:27.533Z,8.81
2016-05-17T00:53:37.549Z,8.78
2016-05-17T00:53:47.549Z,8.82
2016-05-17T00:53:57.549Z,8.79
2016-05-17T00:54:07.551Z,8.84
2016-05-17T00:54:17.567Z,8.77
2016-05-17T00:54:27.567Z,8.79
2016-05-17T00:54:37.567Z,8.78
2016-05-17T00:54:47.582Z,8.81
2016-05-17T00:54:57.582Z,8.77
2016-05-17T00:55:07.585Z,8.81
2016-05-17T00:55:17.585Z,8.81
2016-05-17T00:55:27.585Z,8.77
2016-05-17T00:55:37.585Z,8.79
2016-05-17T00:55:47.601Z,8.78
2016-05-17T00:55:57.601Z,8.79
2016-05-17T00:56:07.604Z,8.72
2016-05-17T00:56:17.620Z,8.78
2016-05-17T00:56:27.620Z,8.78
2016-05-17T00:56:37.620Z,8.77
2016-05-17T00:56:47.635Z,8.74
2016-05-17T00:56:57.635Z,8.79
2016-05-17T00:57:07.637Z,8.77
2016-05-17T00:57:17.637Z,8.74
2016-05-17T00:57:27.637Z,8.81
2016-05-17T00:57:37.653Z,8.78
2016-05-17T00:57:47.653Z,8.75
2016-05-17T00:57:57.653Z,8.74
2016-05-17T00:58:07.656Z,8.77
2016-05-17T00:58:17.671Z,8.79
2016-05-17T00:58:27.671Z,8.81
2016-05-17T00:58:37.671Z,8.78
2016-05-17T00:58:47.671Z,8.74
2016-05-17T00:58:57.687Z,8.77
2016-05-17T00:59:07.690Z,8.75
2016-05-17T00:59:17.690Z,8.74
2016-05-17T00:59:27.690Z,8.79
2016-05-17T00:59:37.706Z,8.78
2016-05-17T00:59:47.706Z,8.69
2016-05-17T00:59:57.706Z,8.74
2016-05-17T01:00:07.724Z,8.75
2016-05-17T01:00:17.724Z,8.82
2016-05-17T01:00:27.724Z,8.79
2016-05-17T01:00:37.724Z,8.79
2016-05-17T01:00:47.724Z,8.78
2016-05-17T01:00:57.740Z,8.72
2016-05-17T01:01:07.743Z,8.74
2016-05-17T01:01:17.743Z,8.77
2016-05-17T01:01:27.743Z,8.78
2016-05-17T01:01:37.759Z,8.75
2016-05-17T01:01:47.759Z,8.77
2016-05-17T01:01:57.759Z,8.81
2016-05-17T01:02:07.776Z,8.77
2016-05-17T01:02:17.776Z,8.74
2016-05-17T01:02:27.776Z,8.78
2016-05-17T01:02:37.776Z,8.72
2016-05-17T01:02:47.792Z,8.81
2016-05-17T01:02:57.792Z,8.77
2016-05-17T01:03:07.795Z,8.75
2016-05-17T01:03:17.795Z,8.81
2016-05-17T01:03:27.810Z,8.79
2016-05-17T01:03:37.810Z,8.77
2016-05-17T01:03:47.810Z,8.79
2016-05-17T01:03:57.810Z,8.78
2016-05-17T01:04:07.812Z,8.75
2016-05-17T01:04:17.828Z,8.86
2016-05-17T01:04:27.828Z,8.77
2016-05-17T01:04:37.828Z,8.78
2016-05-17T01:04:47.828Z,8.81
2016-05-17T01:04:57.844Z,8.81
2016-05-17T01:05:07.847Z,8.78
2016-05-17T01:05:17.847Z,8.78
2016-05-17T01:05:27.862Z,8.75
2016-05-17T01:05:37.862Z,8.87
2016-05-17T01:05:47.862Z,8.81
2016-05-17T01:05:57.862Z,8.82
2016-05-17T01:06:07.880Z,8.74
2016-05-17T01:06:17.880Z,8.78
2016-05-17T01:06:27.896Z,8.81
2016-05-17T01:06:38.567Z,8.79
2016-05-17T01:06:48.364Z,8.79
2016-05-17T01:06:57.896Z,8.78
2016-05-17T01:07:07.900Z,8.78
2016-05-17T01:07:17.900Z,8.79
2016-05-17T01:07:27.915Z,8.82
2016-05-17T01:07:37.915Z,8.82
2016-05-17T01:07:47.915Z,8.79
2016-05-17T01:07:57.931Z,8.82
2016-05-17T01:08:07.933Z,8.79
2016-05-17T01:08:17.933Z,8.82
2016-05-17T01:08:27.933Z,8.82
2016-05-17T01:08:37.933Z,8.81
2016-05-17T01:08:47.948Z,8.81
2016-05-17T01:08:57.948Z,8.81
2016-05-17T01:09:07.951Z,8.82
2016-05-17T01:09:17.951Z,8.75
2016-05-17T01:09:27.951Z,8.81
2016-05-17T01:09:37.967Z,8.82
2016-05-17T01:09:47.967Z,8.78
2016-05-17T01:09:57.967Z,8.81
2016-05-17T01:10:07.986Z,8.79
2016-05-17T01:10:17.986Z,8.79
2016-05-17T01:10:27.986Z,8.78
2016-05-17T01:10:38.001Z,8.87
2016-05-17T01:10:48.001Z,8.81
2016-05-17T01:10:58.001Z,8.81
2016-05-17T01:11:08.003Z,8.82
2016-05-17T01:11:18.003Z,8.84
2016-05-17T01:11:28.019Z,8.84
2016-05-17T01:11:38.019Z,8.77
2016-05-17T01:11:48.019Z,8.78
2016-05-17T01:11:58.035Z,8.81
2016-05-17T01:12:08.038Z,8.78
2016-05-17T01:12:18.038Z,8.86
2016-05-17T01:12:28.038Z,8.81
2016-05-17T01:12:38.038Z,8.82
2016-05-17T01:12:48.053Z,8.72
2016-05-17T01:12:58.053Z,8.75
2016-05-17T01:13:08.056Z,8.79
2016-05-17T01:13:18.072Z,8.81
2016-05-17T01:13:28.072Z,8.81
2016-05-17T01:13:38.072Z,8.79
2016-05-17T01:13:48.072Z,8.82
2016-05-17T01:13:58.072Z,8.79
2016-05-17T01:14:08.089Z,8.84
2016-05-17T01:14:18.089Z,8.79
2016-05-17T01:14:28.089Z,8.79
2016-05-17T01:14:38.089Z,8.78
2016-05-17T01:14:48.105Z,8.86
2016-05-17T01:14:58.105Z,8.72
2016-05-17T01:15:08.108Z,8.78
2016-05-17T01:15:18.108Z,8.79
2016-05-17T01:15:28.124Z,8.78
2016-05-17T01:15:38.124Z,8.77
2016-05-17T01:15:48.124Z,8.75
2016-05-17T01:15:58.124Z,8.78
2016-05-17T01:16:08.142Z,8.79
2016-05-17T01:16:18.142Z,8.79
2016-05-17T01:16:28.142Z,8.78
2016-05-17T01:16:38.142Z,8.75
2016-05-17T01:16:48.158Z,8.78
2016-05-17T01:16:58.158Z,8.78
2016-05-17T01:17:08.161Z,8.77
2016-05-17T01:17:18.161Z,8.75
2016-05-17T01:17:28.177Z,8.72
2016-05-17T01:17:38.177Z,8.75
2016-05-17T01:17:48.192Z,8.78
2016-05-17T01:17:58.177Z,8.78
2016-05-17T01:18:08.194Z,8.78
2016-05-17T01:18:18.194Z,8.75
2016-05-17T01:18:28.194Z,8.78
2016-05-17T01:18:38.194Z,8.72
2016-05-17T01:18:48.210Z,8.78
2016-05-17T01:18:58.210Z,8.82
2016-05-17T01:19:08.213Z,8.78
2016-05-17T01:19:18.213Z,8.79
2016-05-17T01:19:28.228Z,8.78
2016-05-17T01:19:38.228Z,8.75
2016-05-17T01:19:48.228Z,8.79
2016-05-17T01:19:58.228Z,8.77
2016-05-17T01:20:08.247Z,8.78
2016-05-17T01:20:18.247Z,8.78
2016-05-17T01:20:28.247Z,8.77
2016-05-17T01:20:38.247Z,8.78
2016-05-17T01:20:48.263Z,8.77
2016-05-17T01:20:58.263Z,8.72
2016-05-17T01:21:08.265Z,8.82
2016-05-17T01:21:18.280Z,8.72
2016-05-17T01:21:28.280Z,8.79
2016-05-17T01:21:38.280Z,8.74
2016-05-17T01:21:48.280Z,8.74
2016-05-17T01:21:58.280Z,8.77
2016-05-17T01:22:08.299Z,8.82
2016-05-17T01:22:18.299Z,8.75
2016-05-17T01:22:28.299Z,8.72
2016-05-17T01:22:38.299Z,8.77
2016-05-17T01:22:48.315Z,8.72
2016-05-17T01:22:58.315Z,8.79
2016-05-17T01:23:08.317Z,8.77
2016-05-17T01:23:18.317Z,8.75
2016-05-17T01:23:28.332Z,8.74
2016-05-17T01:23:38.332Z,8.74
2016-05-17T01:23:48.348Z,8.77
2016-05-17T01:23:58.348Z,8.72
2016-05-17T01:24:08.351Z,8.75
2016-05-17T01:24:18.351Z,8.75
2016-05-17T01:24:28.351Z,8.79
2016-05-17T01:24:38.351Z,8.81
2016-05-17T01:24:48.366Z,8.79
2016-05-17T01:24:58.366Z,8.75
2016-05-17T01:25:08.369Z,8.79
2016-05-17T01:25:18.385Z,8.75
2016-05-17T01:25:28.385Z,8.72
2016-05-17T01:25:38.385Z,8.79
2016-05-17T01:25:48.385Z,8.78
2016-05-17T01:25:58.401Z,8.79
2016-05-17T01:26:08.404Z,8.77
2016-05-17T01:26:18.404Z,8.78
2016-05-17T01:26:28.404Z,8.78
2016-05-17T01:26:38.419Z,8.69
2016-05-17T01:26:48.419Z,8.75
2016-05-17T01:26:58.419Z,8.74
2016-05-17T01:27:08.421Z,8.75
2016-05-17T01:27:18.421Z,8.72
2016-05-17T01:27:28.437Z,8.74
2016-05-17T01:27:38.437Z,8.75
2016-05-17T01:27:48.437Z,8.77
2016-05-17T01:27:58.453Z,8.75
2016-05-17T01:28:08.456Z,8.75
2016-05-17T01:28:18.456Z,8.74
2016-05-17T01:28:28.456Z,8.74
2016-05-17T01:28:38.456Z,8.77
2016-05-17T01:28:48.471Z,8.81
2016-05-17T01:28:58.471Z,8.77
2016-05-17T01:29:08.473Z,8.74
2016-05-17T01:29:18.489Z,8.77
2016-05-17T01:29:28.489Z,8.78
2016-05-17T01:29:38.489Z,8.71
2016-05-17T01:29:48.489Z,8.77
2016-05-17T01:29:58.504Z,8.75
2016-05-17T01:30:08.507Z,8.74
2016-05-17T01:30:18.507Z,8.77
2016-05-17T01:30:28.507Z,8.72
2016-05-17T01:30:38.523Z,8.74
2016-05-17T01:30:48.523Z,8.75
2016-05-17T01:30:58.523Z,8.75
2016-05-17T01:31:08.526Z,8.74
2016-05-17T01:31:18.526Z,8.79
2016-05-17T01:31:28.542Z,8.75
2016-05-17T01:31:38.542Z,8.77
2016-05-17T01:31:48.542Z,8.77
2016-05-17T01:31:58.557Z,8.77
2016-05-17T01:32:08.559Z,8.74
2016-05-17T01:32:18.559Z,8.77
2016-05-17T01:32:28.559Z,8.77
2016-05-17T01:32:38.575Z,8.77
2016-05-17T01:32:48.575Z,8.74
2016-05-17T01:32:58.575Z,8.72
2016-05-17T01:33:08.579Z,8.74
2016-05-17T01:33:18.579Z,8.77
2016-05-17T01:33:28.595Z,8.71
2016-05-17T01:33:38.595Z,8.75
2016-05-17T01:33:48.595Z,8.75
2016-05-17T01:33:58.610Z,8.69
2016-05-17T01:34:08.612Z,8.77
2016-05-17T01:34:18.612Z,8.74
2016-05-17T01:34:28.612Z,8.77
2016-05-17T01:34:38.612Z,8.75
2016-05-17T01:34:48.628Z,8.77
2016-05-17T01:34:58.628Z,8.72
2016-05-17T01:35:08.631Z,8.79
2016-05-17T01:35:18.646Z,8.79
2016-05-17T01:35:28.646Z,8.75
2016-05-17T01:35:38.646Z,8.77
2016-05-17T01:35:48.646Z,8.74
2016-05-17T01:35:58.662Z,8.75
2016-05-17T01:36:08.665Z,8.68
2016-05-17T01:36:18.665Z,8.75
2016-05-17T01:36:28.665Z,8.74
2016-05-17T01:36:38.681Z,8.74
2016-05-17T01:36:48.681Z,8.72
2016-05-17T01:36:58.681Z,8.75
2016-05-17T01:37:08.683Z,8.77
2016-05-17T01:37:18.698Z,8.74
2016-05-17T01:37:28.698Z,8.71
2016-05-17T01:37:38.698Z,8.77
2016-05-17T01:37:48.714Z,8.75
2016-05-17T01:37:58.714Z,8.72
2016-05-17T01:38:08.717Z,8.75
2016-05-17T01:38:18.717Z,8.78
2016-05-17T01:38:28.717Z,8.75
2016-05-17T01:38:38.733Z,8.75
2016-05-17T01:38:48.733Z,8.75
2016-05-17T01:38:58.733Z,8.71
2016-05-17T01:39:08.735Z,8.75
2016-05-17T01:39:18.750Z,8.78
2016-05-17T01:39:28.750Z,8.75
2016-05-17T01:39:38.750Z,8.75
2016-05-17T01:39:48.750Z,8.78
2016-05-17T01:39:58.766Z,8.74
2016-05-17T01:40:08.769Z,8.72
2016-05-17T01:40:18.769Z,8.77
2016-05-17T01:40:28.784Z,8.77
2016-05-17T01:40:38.784Z,8.74
2016-05-17T01:40:48.784Z,8.72
2016-05-17T01:40:58.784Z,8.82
2016-05-17T01:41:08.787Z,8.75
2016-05-17T01:41:18.787Z,8.75
2016-05-17T01:41:28.803Z,8.78
2016-05-17T01:41:38.803Z,8.75
2016-05-17T01:41:48.803Z,8.75
2016-05-17T01:41:58.819Z,8.74
2016-05-17T01:42:08.822Z,8.69
2016-05-17T01:42:18.822Z,8.72
2016-05-17T01:42:28.822Z,8.77
2016-05-17T01:42:38.822Z,8.74
2016-05-17T01:42:48.837Z,8.72
2016-05-17T01:42:58.837Z,8.77
2016-05-17T01:43:08.839Z,8.75
2016-05-17T01:43:18.855Z,8.75
2016-05-17T01:43:28.855Z,8.78
2016-05-17T01:43:38.855Z,8.72
2016-05-17T01:43:48.855Z,8.68
2016-05-17T01:43:58.871Z,8.78
2016-05-17T01:44:08.874Z,8.74
2016-05-17T01:44:18.874Z,8.69
2016-05-17T01:44:28.874Z,8.79
2016-05-17T01:44:38.889Z,8.74
2016-05-17T01:44:48.889Z,8.77
2016-05-17T01:44:58.889Z,8.74
2016-05-17T01:45:08.891Z,8.72
2016-05-17T01:45:18.891Z,8.75
2016-05-17T01:45:28.907Z,8.78
2016-05-17T01:45:38.907Z,8.78
2016-05-17T01:45:48.907Z,8.64
2016-05-17T01:45:58.922Z,8.79
2016-05-17T01:46:08.925Z,8.78
2016-05-17T01:46:18.925Z,8.75
2016-05-17T01:46:28.925Z,8.77
2016-05-17T01:46:38.925Z,8.77
2016-05-17T01:46:48.941Z,8.79
2016-05-17T01:46:58.941Z,8.74
2016-05-17T01:47:08.944Z,8.79
2016-05-17T01:47:18.960Z,8.77
2016-05-17T01:47:28.960Z,8.79
2016-05-17T01:47:38.960Z,8.75
2016-05-17T01:47:48.960Z,8.78
2016-05-17T01:47:58.975Z,8.77
2016-05-17T01:48:08.977Z,8.79
2016-05-17T01:48:18.977Z,8.79
2016-05-17T01:48:28.977Z,8.81
2016-05-17T01:48:38.977Z,8.78
2016-05-17T01:48:48.993Z,8.79
2016-05-17T01:48:58.993Z,8.77
2016-05-17T01:49:09.013Z,8.81
2016-05-17T01:49:19.013Z,8.77
2016-05-17T01:49:29.013Z,8.79
2016-05-17T01:49:39.013Z,8.79
2016-05-17T01:49:49.013Z,8.79
2016-05-17T01:49:59.028Z,8.78
2016-05-17T01:50:09.030Z,8.78
2016-05-17T01:50:19.030Z,8.79
2016-05-17T01:50:29.030Z,8.77
2016-05-17T01:50:39.046Z,8.77
2016-05-17T01:50:49.046Z,8.72
2016-05-17T01:50:59.046Z,8.79
2016-05-17T01:51:09.049Z,8.75
2016-05-17T01:51:19.064Z,8.77
2016-05-17T01:51:29.064Z,8.77
2016-05-17T01:51:39.064Z,8.74
2016-05-17T01:51:49.611Z,8.74
2016-05-17T01:51:59.080Z,8.75
2016-05-17T01:52:09.083Z,8.77
2016-05-17T01:52:19.083Z,8.77
2016-05-17T01:52:29.083Z,8.72
2016-05-17T01:52:39.099Z,8.79
2016-05-17T01:52:49.099Z,8.72
2016-05-17T01:52:59.099Z,8.79
2016-05-17T01:53:09.101Z,8.75
2016-05-17T01:53:19.116Z,8.78
2016-05-17T01:53:29.116Z,8.77
2016-05-17T01:53:39.116Z,8.81
2016-05-17T01:53:49.116Z,8.72
2016-05-17T01:53:59.132Z,8.72
2016-05-17T01:54:09.135Z,8.78
2016-05-17T01:54:19.135Z,8.82
2016-05-17T01:54:29.135Z,8.77
2016-05-17T01:54:39.151Z,8.81
2016-05-17T01:54:49.151Z,8.82
2016-05-17T01:54:59.151Z,8.75
2016-05-17T01:55:09.168Z,8.78
2016-05-17T01:55:19.168Z,8.84
2016-05-17T01:55:29.168Z,8.87
2016-05-17T01:55:39.168Z,8.82
2016-05-17T01:55:49.168Z,8.75
2016-05-17T01:55:59.184Z,8.82
2016-05-17T01:56:09.187Z,8.84
2016-05-17T01:56:19.187Z,8.78
2016-05-17T01:56:29.187Z,8.86
2016-05-17T01:56:39.202Z,8.87
2016-05-17T01:56:49.202Z,8.81
2016-05-17T01:56:59.202Z,8.81
2016-05-17T01:57:09.205Z,8.79
2016-05-17T01:57:19.221Z,8.78
2016-05-17T01:57:29.221Z,8.77
2016-05-17T01:57:39.221Z,8.78
2016-05-17T01:57:49.221Z,8.82
2016-05-17T01:57:59.237Z,8.74
2016-05-17T01:58:09.240Z,8.82
2016-05-17T01:58:19.240Z,8.79
2016-05-17T01:58:29.240Z,8.78
2016-05-17T01:58:39.255Z,8.75
2016-05-17T01:58:49.255Z,8.87
2016-05-17T01:58:59.255Z,8.78
2016-05-17T01:59:09.273Z,8.77
2016-05-17T01:59:19.273Z,8.79
2016-05-17T01:59:29.273Z,8.81
2016-05-17T01:59:39.273Z,8.79
2016-05-17T01:59:49.289Z,8.77
2016-05-17T01:59:59.289Z,8.77
2016-05-17T02:00:09.292Z,8.74
2016-05-17T02:00:19.292Z,8.75
2016-05-17T02:00:29.307Z,8.77
2016-05-17T02:00:39.307Z,8.75
2016-05-17T02:00:49.307Z,8.77
2016-05-17T02:00:59.323Z,8.72
2016-05-17T02:01:09.326Z,8.79
2016-05-17T02:01:19.326Z,8.81
2016-05-17T02:01:29.326Z,8.74
2016-05-17T02:01:39.326Z,8.78
2016-05-17T02:01:49.341Z,8.72
2016-05-17T02:01:59.341Z,8.81
2016-05-17T02:02:09.343Z,8.79
2016-05-17T02:02:19.343Z,8.81
2016-05-17T02:02:29.359Z,8.81
2016-05-17T02:02:39.359Z,8.81
2016-05-17T02:02:49.359Z,8.78
2016-05-17T02:02:59.359Z,8.79
2016-05-17T02:03:09.362Z,8.77
2016-05-17T02:03:19.378Z,8.78
2016-05-17T02:03:29.378Z,8.75
2016-05-17T02:03:39.378Z,8.79
2016-05-17T02:03:49.378Z,8.78
2016-05-17T02:03:59.393Z,8.77
2016-05-17T02:04:09.395Z,8.77
2016-05-17T02:04:19.395Z,8.72
2016-05-17T02:04:29.411Z,8.77
2016-05-17T02:04:39.411Z,8.77
2016-05-17T02:04:49.411Z,8.78
2016-05-17T02:04:59.411Z,8.77
2016-05-17T02:05:09.431Z,8.74
2016-05-17T02:05:19.431Z,8.78
2016-05-17T02:05:29.431Z,8.81
2016-05-17T02:05:39.431Z,8.77
2016-05-17T02:05:49.446Z,8.78
2016-05-17T02:05:59.446Z,8.72
2016-05-17T02:06:09.464Z,8.77
2016-05-17T02:06:19.448Z,8.72
2016-05-17T02:06:29.464Z,8.77
2016-05-17T02:06:39.464Z,8.79
2016-05-17T02:06:49.495Z,8.78
2016-05-17T02:06:59.714Z,8.74
2016-05-17T02:07:09.482Z,8.78
2016-05-17T02:07:19.482Z,8.77
2016-05-17T02:07:29.482Z,8.74
2016-05-17T02:07:39.498Z,8.74
2016-05-17T02:07:49.498Z,8.64
2016-05-17T02:07:59.498Z,8.77
2016-05-17T02:08:09.501Z,8.79
2016-05-17T02:08:19.501Z,8.72
2016-05-17T02:08:29.517Z,8.77
2016-05-17T02:08:39.517Z,8.77
2016-05-17T02:08:49.517Z,8.75
2016-05-17T02:08:59.532Z,8.77
2016-05-17T02:09:09.519Z,8.74
2016-05-17T02:09:19.534Z,8.71
2016-05-17T02:09:29.534Z,8.77
2016-05-17T02:09:39.534Z,8.77
2016-05-17T02:09:49.534Z,8.74
2016-05-17T02:09:59.550Z,8.77
2016-05-17T02:10:09.553Z,8.72
2016-05-17T02:10:19.553Z,8.77
2016-05-17T02:10:29.569Z,8.74
2016-05-17T02:10:39.569Z,8.75
2016-05-17T02:10:49.569Z,8.72
2016-05-17T02:10:59.569Z,8.72
2016-05-17T02:11:09.587Z,8.77
2016-05-17T02:11:19.587Z,8.75
2016-05-17T02:11:29.587Z,8.74
2016-05-17T02:11:39.587Z,8.74
2016-05-17T02:11:49.603Z,8.72
2016-05-17T02:11:59.603Z,8.78
2016-05-17T02:12:09.605Z,8.74
2016-05-17T02:12:19.605Z,8.72
2016-05-17T02:12:29.620Z,8.68
2016-05-17T02:12:39.620Z,8.72
2016-05-17T02:12:49.620Z,8.72
2016-05-17T02:12:59.620Z,8.78
2016-05-17T02:13:09.639Z,8.72
2016-05-17T02:13:19.639Z,8.75
2016-05-17T02:13:29.639Z,8.71